Terminal Aerodrome Forecast
Issued by NWS

Home | Current Version | Previous Version | Graphics & Text | Print | Product List | Glossary On
Versions: 1 2 3 4 5 6 7 8 9 10 11 12 13 14 15 16 17 18 19 20 21 22 23 24 25 26 27 28 29 30 31 32 33 34 35 36 37
000
FTUS43 KGRB 281900 AAA
TAFRHI
TAF AMD
KRHI 281925Z 2819/2918 16009G15KT P6SM SCT015 OVC120
     FM290200 16006KT 5SM BR SCT005 OVC010
      TEMPO 2903/2906 2SM -FZDZSN BR OVC005
     FM290600 VRB03KT 3SM -SN BR OVC005
     FM290800 29005KT 3SM -SN BR OVC005
     FM291200 31010KT 5SM -FZDZSN BR OVC007
     FM291600 31014G22KT P6SM OVC012=

USA.gov is the U.S. government's official web portal to all federal, state and local government web resources and services.